sensor_id;sensor_type;location;lat;lon;timestamp;P1;durP1;ratioP1;P2;durP2;ratioP2
59302;SDS011;45074;52.764;6.896;2022-12-18T00:00:59;93.30;;;31.25;;
59302;SDS011;45074;52.764;6.896;2022-12-18T00:03:25;94.05;;;33.33;;
59302;SDS011;45074;52.764;6.896;2022-12-18T00:05:52;89.88;;;32.17;;
59302;SDS011;45074;52.764;6.896;2022-12-18T00:08:18;92.65;;;32.72;;
59302;SDS011;45074;52.764;6.896;2022-12-18T00:10:45;88.38;;;31.70;;
59302;SDS011;45074;52.764;6.896;2022-12-18T00:13:11;85.70;;;32.75;;
59302;SDS011;45074;52.764;6.896;2022-12-18T00:15:37;82.35;;;32.58;;
59302;SDS011;45074;52.764;6.896;2022-12-18T00:18:04;91.07;;;34.28;;
59302;SDS011;45074;52.764;6.896;2022-12-18T00:20:30;87.95;;;33.78;;
59302;SDS011;45074;52.764;6.896;2022-12-18T00:22:56;85.68;;;32.55;;
59302;SDS011;45074;52.764;6.896;2022-12-18T00:25:22;80.55;;;32.03;;
59302;SDS011;45074;52.764;6.896;2022-12-18T00:27:48;79.10;;;31.23;;
59302;SDS011;45074;52.764;6.896;2022-12-18T00:30:14;83.70;;;32.47;;
59302;SDS011;45074;52.764;6.896;2022-12-18T00:32:40;84.75;;;33.00;;
59302;SDS011;45074;52.764;6.896;2022-12-18T00:35:07;80.40;;;31.08;;
59302;SDS011;45074;52.764;6.896;2022-12-18T00:37:33;82.70;;;30.65;;
59302;SDS011;45074;52.764;6.896;2022-12-18T00:39:59;78.47;;;32.17;;
59302;SDS011;45074;52.764;6.896;2022-12-18T00:42:25;83.60;;;31.20;;
59302;SDS011;45074;52.764;6.896;2022-12-18T00:45:10;82.22;;;31.33;;
59302;SDS011;45074;52.764;6.896;2022-12-18T00:47:36;75.88;;;32.47;;
59302;SDS011;45074;52.764;6.896;2022-12-18T00:50:02;76.28;;;31.30;;
59302;SDS011;45074;52.764;6.896;2022-12-18T00:52:28;74.10;;;30.08;;
59302;SDS011;45074;52.764;6.896;2022-12-18T00:54:54;74.60;;;30.65;;
59302;SDS011;45074;52.764;6.896;2022-12-18T00:57:20;70.72;;;30.45;;
59302;SDS011;45074;52.764;6.896;2022-12-18T00:59:46;75.65;;;31.50;;
59302;SDS011;45074;52.764;6.896;2022-12-18T01:02:12;74.82;;;30.48;;
59302;SDS011;45074;52.764;6.896;2022-12-18T01:04:38;79.82;;;31.63;;
59302;SDS011;45074;52.764;6.896;2022-12-18T01:07:04;75.13;;;31.77;;
59302;SDS011;45074;52.764;6.896;2022-12-18T01:09:30;73.90;;;31.00;;
59302;SDS011;45074;52.764;6.896;2022-12-18T01:11:56;74.85;;;30.13;;
59302;SDS011;45074;52.764;6.896;2022-12-18T01:14:22;74.65;;;29.70;;
59302;SDS011;45074;52.764;6.896;2022-12-18T01:16:48;82.53;;;31.80;;
59302;SDS011;45074;52.764;6.896;2022-12-18T01:19:14;79.50;;;33.35;;
59302;SDS011;45074;52.764;6.896;2022-12-18T01:21:40;87.07;;;33.38;;
59302;SDS011;45074;52.764;6.896;2022-12-18T01:24:07;85.13;;;33.95;;
59302;SDS011;45074;52.764;6.896;2022-12-18T01:26:33;103.07;;;35.17;;
59302;SDS011;45074;52.764;6.896;2022-12-18T01:28:59;97.25;;;34.83;;
59302;SDS011;45074;52.764;6.896;2022-12-18T01:31:29;104.70;;;36.42;;
59302;SDS011;45074;52.764;6.896;2022-12-18T01:33:57;97.88;;;35.38;;
59302;SDS011;45074;52.764;6.896;2022-12-18T01:36:29;96.18;;;36.08;;
59302;SDS011;45074;52.764;6.896;2022-12-18T01:39:00;96.85;;;36.08;;
59302;SDS011;45074;52.764;6.896;2022-12-18T01:41:30;99.85;;;35.88;;
59302;SDS011;45074;52.764;6.896;2022-12-18T01:50:11;91.68;;;34.38;;
59302;SDS011;45074;52.764;6.896;2022-12-18T01:52:43;82.22;;;33.05;;
59302;SDS011;45074;52.764;6.896;2022-12-18T01:55:12;70.03;;;29.85;;
59302;SDS011;45074;52.764;6.896;2022-12-18T01:57:41;74.18;;;30.98;;
59302;SDS011;45074;52.764;6.896;2022-12-18T02:00:09;71.40;;;29.60;;
59302;SDS011;45074;52.764;6.896;2022-12-18T02:02:38;71.03;;;29.83;;
59302;SDS011;45074;52.764;6.896;2022-12-18T02:05:08;73.10;;;29.67;;
59302;SDS011;45074;52.764;6.896;2022-12-18T02:15:32;65.80;;;27.90;;
59302;SDS011;45074;52.764;6.896;2022-12-18T02:18:20;62.78;;;28.60;;
59302;SDS011;45074;52.764;6.896;2022-12-18T02:20:49;65.50;;;28.42;;
59302;SDS011;45074;52.764;6.896;2022-12-18T02:23:46;62.85;;;27.80;;
59302;SDS011;45074;52.764;6.896;2022-12-18T02:28:41;63.45;;;28.33;;
59302;SDS011;45074;52.764;6.896;2022-12-18T02:31:11;60.80;;;27.45;;
59302;SDS011;45074;52.764;6.896;2022-12-18T02:36:08;57.10;;;26.65;;
59302;SDS011;45074;52.764;6.896;2022-12-18T02:38:35;57.17;;;26.52;;
59302;SDS011;45074;52.764;6.896;2022-12-18T02:41:02;62.45;;;26.45;;
59302;SDS011;45074;52.764;6.896;2022-12-18T02:43:29;57.40;;;25.85;;
59302;SDS011;45074;52.764;6.896;2022-12-18T02:45:56;60.20;;;26.88;;
59302;SDS011;45074;52.764;6.896;2022-12-18T02:48:33;56.13;;;25.67;;
59302;SDS011;45074;52.764;6.896;2022-12-18T02:51:03;59.85;;;26.35;;
59302;SDS011;45074;52.764;6.896;2022-12-18T02:53:45;58.35;;;25.70;;
59302;SDS011;45074;52.764;6.896;2022-12-18T02:56:41;57.13;;;25.15;;
59302;SDS011;45074;52.764;6.896;2022-12-18T02:59:15;55.55;;;25.30;;
59302;SDS011;45074;52.764;6.896;2022-12-18T03:02:06;58.03;;;25.67;;
59302;SDS011;45074;52.764;6.896;2022-12-18T03:07:35;59.22;;;25.17;;
59302;SDS011;45074;52.764;6.896;2022-12-18T03:10:26;56.33;;;24.25;;
59302;SDS011;45074;52.764;6.896;2022-12-18T03:13:02;54.63;;;25.08;;
59302;SDS011;45074;52.764;6.896;2022-12-18T03:15:35;56.45;;;23.80;;
59302;SDS011;45074;52.764;6.896;2022-12-18T03:18:16;52.03;;;23.92;;
59302;SDS011;45074;52.764;6.896;2022-12-18T03:21:04;54.17;;;24.45;;
59302;SDS011;45074;52.764;6.896;2022-12-18T03:23:40;53.35;;;24.23;;
59302;SDS011;45074;52.764;6.896;2022-12-18T03:26:10;52.90;;;24.05;;
59302;SDS011;45074;52.764;6.896;2022-12-18T03:28:44;56.53;;;24.65;;
59302;SDS011;45074;52.764;6.896;2022-12-18T03:31:15;49.38;;;23.65;;
59302;SDS011;45074;52.764;6.896;2022-12-18T03:33:58;50.63;;;22.98;;
59302;SDS011;45074;52.764;6.896;2022-12-18T03:36:26;54.28;;;24.88;;
59302;SDS011;45074;52.764;6.896;2022-12-18T03:38:55;51.60;;;24.75;;
59302;SDS011;45074;52.764;6.896;2022-12-18T03:41:38;52.90;;;22.80;;
59302;SDS011;45074;52.764;6.896;2022-12-18T03:44:23;48.53;;;23.40;;
59302;SDS011;45074;52.764;6.896;2022-12-18T03:49:55;48.42;;;23.73;;
59302;SDS011;45074;52.764;6.896;2022-12-18T03:55:40;49.72;;;21.88;;
59302;SDS011;45074;52.764;6.896;2022-12-18T03:58:08;50.58;;;23.55;;
59302;SDS011;45074;52.764;6.896;2022-12-18T04:00:36;49.78;;;22.38;;
59302;SDS011;45074;52.764;6.896;2022-12-18T04:03:02;47.83;;;22.38;;
59302;SDS011;45074;52.764;6.896;2022-12-18T04:05:30;47.08;;;22.30;;
59302;SDS011;45074;52.764;6.896;2022-12-18T04:07:58;49.80;;;22.77;;
59302;SDS011;45074;52.764;6.896;2022-12-18T04:10:24;42.75;;;21.55;;
59302;SDS011;45074;52.764;6.896;2022-12-18T04:12:50;45.60;;;22.00;;
59302;SDS011;45074;52.764;6.896;2022-12-18T04:15:21;47.53;;;22.77;;
59302;SDS011;45074;52.764;6.896;2022-12-18T04:17:48;45.08;;;22.05;;
59302;SDS011;45074;52.764;6.896;2022-12-18T04:20:14;44.72;;;21.52;;
59302;SDS011;45074;52.764;6.896;2022-12-18T04:22:40;46.65;;;22.83;;
59302;SDS011;45074;52.764;6.896;2022-12-18T04:25:06;45.95;;;21.90;;
59302;SDS011;45074;52.764;6.896;2022-12-18T04:27:32;43.97;;;21.27;;
59302;SDS011;45074;52.764;6.896;2022-12-18T04:29:58;44.88;;;22.67;;
59302;SDS011;45074;52.764;6.896;2022-12-18T04:32:24;42.13;;;21.17;;
59302;SDS011;45074;52.764;6.896;2022-12-18T04:34:51;45.22;;;22.27;;
59302;SDS011;45074;52.764;6.896;2022-12-18T04:37:17;46.35;;;22.17;;
59302;SDS011;45074;52.764;6.896;2022-12-18T04:39:43;43.40;;;21.23;;
59302;SDS011;45074;52.764;6.896;2022-12-18T04:42:09;45.08;;;21.92;;
59302;SDS011;45074;52.764;6.896;2022-12-18T04:44:35;50.60;;;20.90;;
59302;SDS011;45074;52.764;6.896;2022-12-18T04:47:01;42.90;;;21.17;;
59302;SDS011;45074;52.764;6.896;2022-12-18T04:49:27;41.42;;;20.67;;
59302;SDS011;45074;52.764;6.896;2022-12-18T04:51:53;44.90;;;21.83;;
59302;SDS011;45074;52.764;6.896;2022-12-18T04:54:19;43.40;;;21.20;;
59302;SDS011;45074;52.764;6.896;2022-12-18T04:56:45;43.85;;;20.70;;
59302;SDS011;45074;52.764;6.896;2022-12-18T04:59:11;41.10;;;21.17;;
59302;SDS011;45074;52.764;6.896;2022-12-18T05:01:38;43.13;;;20.95;;
59302;SDS011;45074;52.764;6.896;2022-12-18T05:04:04;43.95;;;21.90;;
59302;SDS011;45074;52.764;6.896;2022-12-18T05:06:30;41.85;;;20.33;;
59302;SDS011;45074;52.764;6.896;2022-12-18T05:08:56;45.13;;;22.25;;
59302;SDS011;45074;52.764;6.896;2022-12-18T05:11:22;41.28;;;20.77;;
59302;SDS011;45074;52.764;6.896;2022-12-18T05:13:48;45.72;;;21.70;;
59302;SDS011;45074;52.764;6.896;2022-12-18T05:16:14;43.20;;;21.70;;
59302;SDS011;45074;52.764;6.896;2022-12-18T05:18:40;44.72;;;22.85;;
59302;SDS011;45074;52.764;6.896;2022-12-18T05:21:07;45.47;;;21.75;;
59302;SDS011;45074;52.764;6.896;2022-12-18T05:23:33;48.13;;;22.85;;
59302;SDS011;45074;52.764;6.896;2022-12-18T05:26:00;42.50;;;20.98;;
59302;SDS011;45074;52.764;6.896;2022-12-18T05:28:28;43.22;;;21.85;;
59302;SDS011;45074;52.764;6.896;2022-12-18T05:30:56;43.00;;;20.05;;
59302;SDS011;45074;52.764;6.896;2022-12-18T05:33:24;39.88;;;21.25;;
59302;SDS011;45074;52.764;6.896;2022-12-18T05:35:51;40.55;;;21.02;;
59302;SDS011;45074;52.764;6.896;2022-12-18T05:38:19;42.95;;;21.63;;
59302;SDS011;45074;52.764;6.896;2022-12-18T05:40:45;36.53;;;20.08;;
59302;SDS011;45074;52.764;6.896;2022-12-18T05:43:11;39.70;;;21.13;;
59302;SDS011;45074;52.764;6.896;2022-12-18T05:45:40;45.90;;;23.30;;
59302;SDS011;45074;52.764;6.896;2022-12-18T05:48:06;42.70;;;21.48;;
59302;SDS011;45074;52.764;6.896;2022-12-18T05:50:36;40.35;;;21.48;;
59302;SDS011;45074;52.764;6.896;2022-12-18T05:53:03;43.92;;;22.48;;
59302;SDS011;45074;52.764;6.896;2022-12-18T05:55:33;41.03;;;22.33;;
59302;SDS011;45074;52.764;6.896;2022-12-18T05:58:03;41.17;;;21.10;;
59302;SDS011;45074;52.764;6.896;2022-12-18T06:00:31;42.03;;;22.05;;
59302;SDS011;45074;52.764;6.896;2022-12-18T06:02:57;43.30;;;22.15;;
59302;SDS011;45074;52.764;6.896;2022-12-18T06:05:23;38.67;;;20.80;;
59302;SDS011;45074;52.764;6.896;2022-12-18T06:07:50;38.53;;;21.15;;
59302;SDS011;45074;52.764;6.896;2022-12-18T06:10:16;40.35;;;21.15;;
59302;SDS011;45074;52.764;6.896;2022-12-18T06:12:42;38.63;;;20.77;;
59302;SDS011;45074;52.764;6.896;2022-12-18T06:15:08;38.85;;;20.88;;
59302;SDS011;45074;52.764;6.896;2022-12-18T06:17:34;43.15;;;22.15;;
59302;SDS011;45074;52.764;6.896;2022-12-18T06:20:00;39.72;;;20.80;;
59302;SDS011;45074;52.764;6.896;2022-12-18T06:22:26;37.80;;;20.52;;
59302;SDS011;45074;52.764;6.896;2022-12-18T06:24:53;42.15;;;20.55;;
59302;SDS011;45074;52.764;6.896;2022-12-18T06:27:19;39.63;;;19.90;;
59302;SDS011;45074;52.764;6.896;2022-12-18T06:29:45;37.00;;;20.10;;
59302;SDS011;45074;52.764;6.896;2022-12-18T06:32:11;38.00;;;20.70;;
59302;SDS011;45074;52.764;6.896;2022-12-18T06:34:37;39.65;;;21.02;;
59302;SDS011;45074;52.764;6.896;2022-12-18T06:37:03;41.97;;;21.23;;
59302;SDS011;45074;52.764;6.896;2022-12-18T06:39:29;39.58;;;21.20;;
59302;SDS011;45074;52.764;6.896;2022-12-18T06:41:55;38.65;;;20.60;;
59302;SDS011;45074;52.764;6.896;2022-12-18T06:44:21;39.53;;;20.55;;
59302;SDS011;45074;52.764;6.896;2022-12-18T06:46:48;38.90;;;20.17;;
59302;SDS011;45074;52.764;6.896;2022-12-18T06:49:14;40.92;;;20.55;;
59302;SDS011;45074;52.764;6.896;2022-12-18T06:51:41;39.80;;;20.05;;
59302;SDS011;45074;52.764;6.896;2022-12-18T06:54:07;36.05;;;20.15;;
59302;SDS011;45074;52.764;6.896;2022-12-18T06:56:33;39.35;;;20.73;;
59302;SDS011;45074;52.764;6.896;2022-12-18T06:58:59;35.15;;;19.95;;
59302;SDS011;45074;52.764;6.896;2022-12-18T07:01:25;38.88;;;20.75;;
59302;SDS011;45074;52.764;6.896;2022-12-18T07:03:52;36.70;;;20.10;;
59302;SDS011;45074;52.764;6.896;2022-12-18T07:06:20;38.80;;;19.77;;
59302;SDS011;45074;52.764;6.896;2022-12-18T07:08:47;40.22;;;21.38;;
59302;SDS011;45074;52.764;6.896;2022-12-18T07:11:13;39.50;;;21.98;;
59302;SDS011;45074;52.764;6.896;2022-12-18T07:13:39;37.67;;;20.77;;
59302;SDS011;45074;52.764;6.896;2022-12-18T07:16:06;34.70;;;20.23;;
59302;SDS011;45074;52.764;6.896;2022-12-18T07:18:33;34.13;;;20.33;;
59302;SDS011;45074;52.764;6.896;2022-12-18T07:21:02;41.50;;;21.55;;
59302;SDS011;45074;52.764;6.896;2022-12-18T07:23:29;42.33;;;22.30;;
59302;SDS011;45074;52.764;6.896;2022-12-18T07:25:59;39.33;;;20.80;;
59302;SDS011;45074;52.764;6.896;2022-12-18T07:28:34;38.30;;;20.60;;
59302;SDS011;45074;52.764;6.896;2022-12-18T07:31:04;35.35;;;18.25;;
59302;SDS011;45074;52.764;6.896;2022-12-18T07:35:58;37.05;;;19.85;;
59302;SDS011;45074;52.764;6.896;2022-12-18T07:38:25;34.78;;;18.95;;
59302;SDS011;45074;52.764;6.896;2022-12-18T07:40:51;36.65;;;18.70;;
59302;SDS011;45074;52.764;6.896;2022-12-18T07:43:17;32.33;;;17.98;;
59302;SDS011;45074;52.764;6.896;2022-12-18T07:45:43;32.88;;;18.42;;
59302;SDS011;45074;52.764;6.896;2022-12-18T07:48:09;32.10;;;18.15;;
59302;SDS011;45074;52.764;6.896;2022-12-18T07:50:35;33.22;;;17.15;;
59302;SDS011;45074;52.764;6.896;2022-12-18T07:53:01;33.92;;;18.17;;
59302;SDS011;45074;52.764;6.896;2022-12-18T07:55:29;29.20;;;17.13;;
59302;SDS011;45074;52.764;6.896;2022-12-18T07:57:56;33.05;;;17.83;;
59302;SDS011;45074;52.764;6.896;2022-12-18T08:00:22;30.80;;;17.35;;
59302;SDS011;45074;52.764;6.896;2022-12-18T08:02:48;30.10;;;17.02;;
59302;SDS011;45074;52.764;6.896;2022-12-18T08:05:14;30.15;;;17.35;;
59302;SDS011;45074;52.764;6.896;2022-12-18T08:07:40;29.48;;;16.40;;
59302;SDS011;45074;52.764;6.896;2022-12-18T08:10:07;30.05;;;17.52;;
59302;SDS011;45074;52.764;6.896;2022-12-18T08:12:33;29.88;;;16.60;;
59302;SDS011;45074;52.764;6.896;2022-12-18T08:14:59;31.90;;;16.38;;
59302;SDS011;45074;52.764;6.896;2022-12-18T08:17:25;29.95;;;15.77;;
59302;SDS011;45074;52.764;6.896;2022-12-18T08:19:51;26.77;;;15.25;;
59302;SDS011;45074;52.764;6.896;2022-12-18T08:22:17;28.83;;;16.05;;
59302;SDS011;45074;52.764;6.896;2022-12-18T08:24:43;28.17;;;15.02;;
59302;SDS011;45074;52.764;6.896;2022-12-18T08:27:09;27.35;;;15.70;;
59302;SDS011;45074;52.764;6.896;2022-12-18T08:29:35;28.35;;;14.77;;
59302;SDS011;45074;52.764;6.896;2022-12-18T08:32:01;27.17;;;15.55;;
59302;SDS011;45074;52.764;6.896;2022-12-18T08:34:27;22.02;;;13.73;;
59302;SDS011;45074;52.764;6.896;2022-12-18T08:36:53;24.02;;;14.25;;
59302;SDS011;45074;52.764;6.896;2022-12-18T08:39:19;28.77;;;15.15;;
59302;SDS011;45074;52.764;6.896;2022-12-18T08:41:45;25.25;;;14.43;;
59302;SDS011;45074;52.764;6.896;2022-12-18T08:44:31;22.75;;;13.15;;
59302;SDS011;45074;52.764;6.896;2022-12-18T08:47:04;21.80;;;13.30;;
59302;SDS011;45074;52.764;6.896;2022-12-18T08:49:31;22.27;;;13.82;;
59302;SDS011;45074;52.764;6.896;2022-12-18T08:51:57;22.80;;;12.60;;
59302;SDS011;45074;52.764;6.896;2022-12-18T08:54:23;21.83;;;12.50;;
59302;SDS011;45074;52.764;6.896;2022-12-18T08:56:50;19.00;;;12.05;;
59302;SDS011;45074;52.764;6.896;2022-12-18T08:59:16;21.73;;;12.90;;
59302;SDS011;45074;52.764;6.896;2022-12-18T09:01:42;23.52;;;12.68;;
59302;SDS011;45074;52.764;6.896;2022-12-18T09:04:09;21.48;;;12.50;;
59302;SDS011;45074;52.764;6.896;2022-12-18T09:06:35;21.20;;;12.05;;
59302;SDS011;45074;52.764;6.896;2022-12-18T09:09:02;22.30;;;12.32;;
59302;SDS011;45074;52.764;6.896;2022-12-18T09:11:29;17.35;;;11.15;;
59302;SDS011;45074;52.764;6.896;2022-12-18T09:13:55;19.88;;;10.93;;
59302;SDS011;45074;52.764;6.896;2022-12-18T09:16:22;18.25;;;11.35;;
59302;SDS011;45074;52.764;6.896;2022-12-18T09:18:49;23.23;;;11.55;;
59302;SDS011;45074;52.764;6.896;2022-12-18T09:21:16;21.50;;;11.13;;
59302;SDS011;45074;52.764;6.896;2022-12-18T09:23:43;18.77;;;11.82;;
59302;SDS011;45074;52.764;6.896;2022-12-18T09:26:09;19.00;;;11.35;;
59302;SDS011;45074;52.764;6.896;2022-12-18T09:28:35;19.00;;;10.10;;
59302;SDS011;45074;52.764;6.896;2022-12-18T09:31:05;19.08;;;10.18;;
59302;SDS011;45074;52.764;6.896;2022-12-18T09:33:32;17.33;;;10.65;;
59302;SDS011;45074;52.764;6.896;2022-12-18T09:36:00;17.15;;;10.85;;
59302;SDS011;45074;52.764;6.896;2022-12-18T09:38:27;16.73;;;9.90;;
59302;SDS011;45074;52.764;6.896;2022-12-18T09:40:55;17.92;;;10.23;;
59302;SDS011;45074;52.764;6.896;2022-12-18T09:45:51;17.77;;;10.05;;
59302;SDS011;45074;52.764;6.896;2022-12-18T09:48:23;18.00;;;9.93;;
59302;SDS011;45074;52.764;6.896;2022-12-18T09:50:53;15.95;;;10.23;;
59302;SDS011;45074;52.764;6.896;2022-12-18T09:53:26;15.43;;;9.13;;
59302;SDS011;45074;52.764;6.896;2022-12-18T09:55:55;13.93;;;8.98;;
59302;SDS011;45074;52.764;6.896;2022-12-18T09:58:25;15.07;;;9.35;;
59302;SDS011;45074;52.764;6.896;2022-12-18T10:00:54;15.32;;;9.13;;
59302;SDS011;45074;52.764;6.896;2022-12-18T10:03:21;17.27;;;10.13;;
59302;SDS011;45074;52.764;6.896;2022-12-18T10:06:11;14.15;;;8.45;;
59302;SDS011;45074;52.764;6.896;2022-12-18T10:11:27;15.00;;;8.98;;
59302;SDS011;45074;52.764;6.896;2022-12-18T10:16:36;16.92;;;8.95;;
59302;SDS011;45074;52.764;6.896;2022-12-18T10:19:29;16.77;;;8.95;;
59302;SDS011;45074;52.764;6.896;2022-12-18T10:27:15;13.75;;;8.75;;
59302;SDS011;45074;52.764;6.896;2022-12-18T10:29:45;15.05;;;8.80;;
59302;SDS011;45074;52.764;6.896;2022-12-18T10:32:18;13.55;;;8.38;;
59302;SDS011;45074;52.764;6.896;2022-12-18T10:34:49;14.73;;;8.38;;
59302;SDS011;45074;52.764;6.896;2022-12-18T10:37:19;14.32;;;9.02;;
59302;SDS011;45074;52.764;6.896;2022-12-18T10:39:46;14.55;;;8.40;;
59302;SDS011;45074;52.764;6.896;2022-12-18T10:42:30;13.77;;;8.48;;
59302;SDS011;45074;52.764;6.896;2022-12-18T10:45:00;15.38;;;8.63;;
59302;SDS011;45074;52.764;6.896;2022-12-18T10:47:30;14.65;;;8.35;;
59302;SDS011;45074;52.764;6.896;2022-12-18T10:49:58;15.45;;;8.77;;
59302;SDS011;45074;52.764;6.896;2022-12-18T10:52:25;13.50;;;9.05;;
59302;SDS011;45074;52.764;6.896;2022-12-18T10:54:53;13.15;;;7.85;;
59302;SDS011;45074;52.764;6.896;2022-12-18T10:59:58;13.20;;;7.93;;
59302;SDS011;45074;52.764;6.896;2022-12-18T11:02:37;14.48;;;8.30;;
59302;SDS011;45074;52.764;6.896;2022-12-18T11:05:05;13.90;;;8.68;;
59302;SDS011;45074;52.764;6.896;2022-12-18T11:07:50;13.80;;;8.70;;
59302;SDS011;45074;52.764;6.896;2022-12-18T11:10:25;16.80;;;9.38;;
59302;SDS011;45074;52.764;6.896;2022-12-18T11:13:21;15.40;;;9.38;;
59302;SDS011;45074;52.764;6.896;2022-12-18T11:15:50;15.23;;;9.45;;
59302;SDS011;45074;52.764;6.896;2022-12-18T11:18:16;14.80;;;9.10;;
59302;SDS011;45074;52.764;6.896;2022-12-18T11:21:05;15.10;;;9.18;;
59302;SDS011;45074;52.764;6.896;2022-12-18T11:23:33;14.30;;;8.38;;
59302;SDS011;45074;52.764;6.896;2022-12-18T11:26:04;15.75;;;9.32;;
59302;SDS011;45074;52.764;6.896;2022-12-18T11:31:15;14.57;;;8.30;;
59302;SDS011;45074;52.764;6.896;2022-12-18T11:33:45;17.20;;;8.55;;
59302;SDS011;45074;52.764;6.896;2022-12-18T11:36:36;16.88;;;9.40;;
59302;SDS011;45074;52.764;6.896;2022-12-18T11:39:16;15.32;;;8.65;;
59302;SDS011;45074;52.764;6.896;2022-12-18T11:41:56;14.75;;;9.23;;
59302;SDS011;45074;52.764;6.896;2022-12-18T11:44:43;14.48;;;8.13;;
59302;SDS011;45074;52.764;6.896;2022-12-18T11:47:58;14.52;;;8.50;;
59302;SDS011;45074;52.764;6.896;2022-12-18T11:50:28;14.43;;;8.70;;
59302;SDS011;45074;52.764;6.896;2022-12-18T11:53:03;13.38;;;7.90;;
59302;SDS011;45074;52.764;6.896;2022-12-18T12:08:12;13.90;;;8.48;;
59302;SDS011;45074;52.764;6.896;2022-12-18T12:10:42;14.35;;;8.13;;
59302;SDS011;45074;52.764;6.896;2022-12-18T12:16:17;15.70;;;8.30;;
59302;SDS011;45074;52.764;6.896;2022-12-18T12:19:10;13.88;;;7.80;;
59302;SDS011;45074;52.764;6.896;2022-12-18T12:22:18;13.68;;;8.35;;
59302;SDS011;45074;52.764;6.896;2022-12-18T12:30:20;15.48;;;8.27;;
59302;SDS011;45074;52.764;6.896;2022-12-18T12:35:52;13.48;;;8.25;;
59302;SDS011;45074;52.764;6.896;2022-12-18T12:38:41;16.95;;;8.70;;
59302;SDS011;45074;52.764;6.896;2022-12-18T12:41:16;14.60;;;8.77;;
59302;SDS011;45074;52.764;6.896;2022-12-18T12:44:05;15.27;;;8.77;;
59302;SDS011;45074;52.764;6.896;2022-12-18T12:46:37;17.30;;;8.88;;
59302;SDS011;45074;52.764;6.896;2022-12-18T12:49:11;13.52;;;8.48;;
59302;SDS011;45074;52.764;6.896;2022-12-18T12:51:58;14.05;;;8.52;;
59302;SDS011;45074;52.764;6.896;2022-12-18T12:54:27;15.88;;;9.48;;
